Accueil en_GB de_DE fr_FR  

17.08.17 17:16 UTC   Mobile
Tarifs
FAQ (Foire aux questions)

 
TopMeteo
Nom d'utilisateur Mot de passe  



La recherche de l'itinéraire n'est disponible qu'aux utilisateurs avec un abonnement actif.

Nous vous affichons les endroits standard. Pour mieux comprendre les rapports de temps de METAR cf. Wikipedia.


EDAH Heringsdorf TAF/S

16:50Z
171400Z 1715/1724 15008KT CAVOK PROB40
TEMPO 1719/1723 4000 TSRA BKN008 BKN015CB ; BECMG 1721/1724 21006KT
14007KT CAVOK 23/15 Q1015
EDDG Münster Osnabrück Flughafen TAF/L

16:50Z
171100Z 1712/1812 19007KT 9999 BKN040
TEMPO 1712/1717 21015G25KT BKN012 ; BECMG 1803/1806 RA ; TEMPO 1808/1812 3000 +SHRA BKN011TCU
22008KT 180V240 9999 FEW027 BKN035 20/16 Q1014 NOSIG
KBUF Greater Buffalo International TAF/L






16:54Z
AMD 171519Z 1715/1812 14006KT P6SM BKN150
FM171900 12007KT 4SM SHRA VCTS BKN090CB
TEMPO 1721/1723 2SM -TSRA OVC040CB
FM180200 14005KT P6SM VCSH OVC045
FM180500 18009KT P6SM OVC050
FM181000 21012KT P6SM BKN012
FM181000 21012KT P6SM BKN012
12007KT 10SM FEW120 FEW160 SCT220 OVC270 27/17 A2995 RMK AO2 SLP139 T02670167
KPIT Greater Pittsburgh International TAF/L




16:51Z
AMD 171505Z 1715/1818 22007KT P6SM SCT130 BKN250
FM171600 18005KT P6SM BKN100
FM172100 18005KT P6SM VCTS BKN050CB
FM180600 22005KT 5SM -SHRA BR OVC035
FM181000 22006KT P6SM VCSH BKN020
20010KT 10SM SCT036 BKN120 BKN180 29/21 A2997 RMK AO2 SLP147 T02940206
KAXH Houston Southwest 16:55Z AUTO 21008KT 10SM CLR 33/22 A3007 RMK AO2 T03330222
LIMC Milano/Malpensa TAF/L
16:50Z
171100Z 1712/1818 VRB05KT CAVOK
23006KT 200V270 9999 FEW060 31/16 Q1017 NOSIG
LOWK Klagenfurt-Flughafen TAF/L

16:50Z
171115Z 1712/1812 VRB02KT 9999 FEW050 TX28/1812Z TN17/1805Z
TEMPO 1713/1717 FEW050CB SCT300 PROB30 ; TEMPO 1802/1808 BKN010
VRB01KT 9999 FEW050 SCT300 26/17 Q1019 NOSIG
FYWB Walvis Bay 17:00Z 26005KT CAVOK 15/07 Q1015
FBFT Francistown TAF/S
17:00Z
170600Z 1709/1718 21008KT CAVOK
22008KT CAVOK 20/M06 Q1016

Data source: ftp://tgftp.nws.noaa.gov/SL.us008001
"Data is provided as a public service by NOAA's National Weather Service (NWS) and is considered public information and may be distributed or copied."
 
 
CGV
Mentions légales
Qui sommes nous?
Simulation numérique: 12 UTC - Prévision: Di 20.08.17 08:00